sensor_id;sensor_type;location;lat;lon;timestamp;P1;durP1;ratioP1;P2;durP2;ratioP2
42886;SDS011;29032;56.028;92.904;2023-06-22T00:04:37;11.32;;;8.23;;
42886;SDS011;29032;56.028;92.904;2023-06-22T00:09:53;10.05;;;8.75;;
42886;SDS011;29032;56.028;92.904;2023-06-22T00:14:58;12.73;;;10.02;;
42886;SDS011;29032;56.028;92.904;2023-06-22T00:20:00;13.00;;;9.00;;
42886;SDS011;29032;56.028;92.904;2023-06-22T00:25:05;9.45;;;8.38;;
42886;SDS011;29032;56.028;92.904;2023-06-22T00:30:13;12.07;;;8.43;;
42886;SDS011;29032;56.028;92.904;2023-06-22T00:35:18;9.13;;;7.78;;
42886;SDS011;29032;56.028;92.904;2023-06-22T00:40:24;9.80;;;7.47;;
42886;SDS011;29032;56.028;92.904;2023-06-22T00:56:29;11.20;;;7.50;;
42886;SDS011;29032;56.028;92.904;2023-06-22T01:01:31;10.30;;;8.88;;
42886;SDS011;29032;56.028;92.904;2023-06-22T01:06:35;9.73;;;8.45;;
42886;SDS011;29032;56.028;92.904;2023-06-22T01:12:13;10.70;;;7.90;;
42886;SDS011;29032;56.028;92.904;2023-06-22T01:17:18;8.27;;;7.47;;
42886;SDS011;29032;56.028;92.904;2023-06-22T01:22:26;9.30;;;7.75;;
42886;SDS011;29032;56.028;92.904;2023-06-22T01:27:39;9.55;;;7.95;;
42886;SDS011;29032;56.028;92.904;2023-06-22T01:33:00;10.38;;;9.02;;
42886;SDS011;29032;56.028;92.904;2023-06-22T01:38:08;9.50;;;8.32;;
42886;SDS011;29032;56.028;92.904;2023-06-22T02:07:52;10.13;;;7.72;;
42886;SDS011;29032;56.028;92.904;2023-06-22T02:12:59;11.20;;;8.65;;
42886;SDS011;29032;56.028;92.904;2023-06-22T02:18:03;10.27;;;7.95;;
42886;SDS011;29032;56.028;92.904;2023-06-22T02:23:08;11.23;;;8.95;;
42886;SDS011;29032;56.028;92.904;2023-06-22T02:28:29;10.02;;;8.57;;
42886;SDS011;29032;56.028;92.904;2023-06-22T02:33:31;9.73;;;8.00;;
42886;SDS011;29032;56.028;92.904;2023-06-22T02:38:34;10.95;;;8.27;;
42886;SDS011;29032;56.028;92.904;2023-06-22T02:43:37;8.35;;;7.40;;
42886;SDS011;29032;56.028;92.904;2023-06-22T02:48:39;9.48;;;8.48;;
42886;SDS011;29032;56.028;92.904;2023-06-22T02:53:42;10.15;;;8.30;;
42886;SDS011;29032;56.028;92.904;2023-06-22T02:58:44;12.18;;;8.15;;
42886;SDS011;29032;56.028;92.904;2023-06-22T03:04:10;10.38;;;8.13;;
42886;SDS011;29032;56.028;92.904;2023-06-22T03:14:54;11.93;;;8.88;;
42886;SDS011;29032;56.028;92.904;2023-06-22T03:19:56;12.68;;;9.23;;
42886;SDS011;29032;56.028;92.904;2023-06-22T03:25:00;12.00;;;8.48;;
42886;SDS011;29032;56.028;92.904;2023-06-22T03:30:02;10.07;;;8.50;;
42886;SDS011;29032;56.028;92.904;2023-06-22T03:35:22;12.15;;;8.93;;
42886;SDS011;29032;56.028;92.904;2023-06-22T03:40:26;12.75;;;9.23;;
42886;SDS011;29032;56.028;92.904;2023-06-22T03:45:28;11.43;;;8.88;;
42886;SDS011;29032;56.028;92.904;2023-06-22T03:50:30;12.60;;;8.70;;
42886;SDS011;29032;56.028;92.904;2023-06-22T03:55:35;14.48;;;9.00;;
42886;SDS011;29032;56.028;92.904;2023-06-22T04:00:37;9.73;;;8.43;;
42886;SDS011;29032;56.028;92.904;2023-06-22T04:05:39;11.05;;;8.43;;
42886;SDS011;29032;56.028;92.904;2023-06-22T04:11:01;11.38;;;9.88;;
42886;SDS011;29032;56.028;92.904;2023-06-22T04:16:03;11.48;;;8.82;;
42886;SDS011;29032;56.028;92.904;2023-06-22T04:26:27;15.18;;;8.38;;
42886;SDS011;29032;56.028;92.904;2023-06-22T04:31:48;10.23;;;9.10;;
42886;SDS011;29032;56.028;92.904;2023-06-22T04:36:50;13.80;;;9.77;;
42886;SDS011;29032;56.028;92.904;2023-06-22T04:41:53;13.40;;;10.20;;
42886;SDS011;29032;56.028;92.904;2023-06-22T04:47:14;18.08;;;9.88;;
42886;SDS011;29032;56.028;92.904;2023-06-22T04:52:16;13.18;;;9.95;;
42886;SDS011;29032;56.028;92.904;2023-06-22T04:57:19;13.68;;;9.93;;
42886;SDS011;29032;56.028;92.904;2023-06-22T05:02:21;16.73;;;11.13;;
42886;SDS011;29032;56.028;92.904;2023-06-22T05:07:23;18.90;;;12.30;;
42886;SDS011;29032;56.028;92.904;2023-06-22T05:12:27;20.17;;;12.02;;
42886;SDS011;29032;56.028;92.904;2023-06-22T05:17:29;18.65;;;12.43;;
42886;SDS011;29032;56.028;92.904;2023-06-22T05:22:31;14.93;;;11.63;;
42886;SDS011;29032;56.028;92.904;2023-06-22T05:27:35;17.63;;;11.07;;
42886;SDS011;29032;56.028;92.904;2023-06-22T05:32:37;24.13;;;12.70;;
42886;SDS011;29032;56.028;92.904;2023-06-22T05:37:39;15.90;;;11.85;;
42886;SDS011;29032;56.028;92.904;2023-06-22T05:42:42;18.27;;;12.45;;
42886;SDS011;29032;56.028;92.904;2023-06-22T05:47:44;16.52;;;12.18;;
42886;SDS011;29032;56.028;92.904;2023-06-22T05:52:46;17.55;;;11.70;;
42886;SDS011;29032;56.028;92.904;2023-06-22T05:57:50;13.75;;;10.52;;
42886;SDS011;29032;56.028;92.904;2023-06-22T06:02:52;13.13;;;10.52;;
42886;SDS011;29032;56.028;92.904;2023-06-22T06:08:12;14.45;;;10.38;;
42886;SDS011;29032;56.028;92.904;2023-06-22T06:13:16;12.82;;;10.82;;
42886;SDS011;29032;56.028;92.904;2023-06-22T06:18:36;13.48;;;11.07;;
42886;SDS011;29032;56.028;92.904;2023-06-22T06:23:38;14.38;;;11.52;;
42886;SDS011;29032;56.028;92.904;2023-06-22T06:34:20;15.25;;;11.07;;
42886;SDS011;29032;56.028;92.904;2023-06-22T06:39:22;18.90;;;12.95;;
42886;SDS011;29032;56.028;92.904;2023-06-22T06:45:02;18.88;;;12.80;;
42886;SDS011;29032;56.028;92.904;2023-06-22T06:50:05;17.08;;;12.25;;
42886;SDS011;29032;56.028;92.904;2023-06-22T06:55:08;15.45;;;11.75;;
42886;SDS011;29032;56.028;92.904;2023-06-22T07:05:33;13.30;;;10.52;;
42886;SDS011;29032;56.028;92.904;2023-06-22T07:10:53;12.43;;;10.52;;
42886;SDS011;29032;56.028;92.904;2023-06-22T07:15:57;12.70;;;10.40;;
42886;SDS011;29032;56.028;92.904;2023-06-22T07:20:59;13.98;;;10.65;;
42886;SDS011;29032;56.028;92.904;2023-06-22T07:26:01;12.35;;;10.15;;
42886;SDS011;29032;56.028;92.904;2023-06-22T07:31:04;16.92;;;10.75;;
42886;SDS011;29032;56.028;92.904;2023-06-22T07:36:07;13.38;;;10.20;;
42886;SDS011;29032;56.028;92.904;2023-06-22T07:41:09;9.85;;;8.82;;
42886;SDS011;29032;56.028;92.904;2023-06-22T07:51:33;13.25;;;10.40;;
42886;SDS011;29032;56.028;92.904;2023-06-22T07:56:36;13.95;;;10.20;;
42886;SDS011;29032;56.028;92.904;2023-06-22T08:01:39;12.50;;;10.07;;
42886;SDS011;29032;56.028;92.904;2023-06-22T08:12:01;12.85;;;9.82;;
42886;SDS011;29032;56.028;92.904;2023-06-22T08:17:05;13.57;;;9.73;;
42886;SDS011;29032;56.028;92.904;2023-06-22T08:22:25;13.10;;;9.95;;
42886;SDS011;29032;56.028;92.904;2023-06-22T08:38:27;10.57;;;8.98;;
42886;SDS011;29032;56.028;92.904;2023-06-22T08:43:48;11.02;;;9.10;;
42886;SDS011;29032;56.028;92.904;2023-06-22T08:49:09;14.00;;;9.20;;
42886;SDS011;29032;56.028;92.904;2023-06-22T08:54:11;19.73;;;5.22;;
42886;SDS011;29032;56.028;92.904;2023-06-22T08:59:13;10.35;;;4.10;;
42886;SDS011;29032;56.028;92.904;2023-06-22T09:04:17;10.85;;;3.90;;
42886;SDS011;29032;56.028;92.904;2023-06-22T09:09:20;5.03;;;3.30;;
42886;SDS011;29032;56.028;92.904;2023-06-22T09:14:23;7.32;;;3.92;;
42886;SDS011;29032;56.028;92.904;2023-06-22T09:25:23;4.32;;;3.10;;
42886;SDS011;29032;56.028;92.904;2023-06-22T09:30:25;7.57;;;3.25;;
42886;SDS011;29032;56.028;92.904;2023-06-22T09:35:46;6.82;;;2.95;;
42886;SDS011;29032;56.028;92.904;2023-06-22T09:46:28;6.68;;;3.28;;
42886;SDS011;29032;56.028;92.904;2023-06-22T09:51:30;3.70;;;3.17;;
42886;SDS011;29032;56.028;92.904;2023-06-22T10:01:53;7.03;;;4.03;;
42886;SDS011;29032;56.028;92.904;2023-06-22T10:06:56;6.82;;;3.53;;
42886;SDS011;29032;56.028;92.904;2023-06-22T10:12:18;6.05;;;4.07;;
42886;SDS011;29032;56.028;92.904;2023-06-22T10:17:23;6.53;;;3.85;;
42886;SDS011;29032;56.028;92.904;2023-06-22T10:22:26;5.93;;;3.88;;
42886;SDS011;29032;56.028;92.904;2023-06-22T10:27:30;6.25;;;4.00;;
42886;SDS011;29032;56.028;92.904;2023-06-22T10:32:51;9.18;;;4.18;;
42886;SDS011;29032;56.028;92.904;2023-06-22T10:38:11;5.88;;;3.70;;
42886;SDS011;29032;56.028;92.904;2023-06-22T10:43:33;5.50;;;3.75;;
42886;SDS011;29032;56.028;92.904;2023-06-22T10:54:13;4.55;;;3.63;;
42886;SDS011;29032;56.028;92.904;2023-06-22T11:04:55;3.95;;;3.50;;
42886;SDS011;29032;56.028;92.904;2023-06-22T11:09:58;4.63;;;3.17;;
42886;SDS011;29032;56.028;92.904;2023-06-22T11:15:00;4.43;;;3.17;;
42886;SDS011;29032;56.028;92.904;2023-06-22T11:20:05;3.05;;;2.75;;
42886;SDS011;29032;56.028;92.904;2023-06-22T11:25:08;3.53;;;3.10;;
42886;SDS011;29032;56.028;92.904;2023-06-22T11:30:10;4.55;;;3.40;;
42886;SDS011;29032;56.028;92.904;2023-06-22T11:35:14;4.38;;;2.97;;
42886;SDS011;29032;56.028;92.904;2023-06-22T11:40:17;5.07;;;3.13;;
42886;SDS011;29032;56.028;92.904;2023-06-22T11:51:00;3.17;;;2.88;;
42886;SDS011;29032;56.028;92.904;2023-06-22T11:56:02;3.28;;;2.97;;
42886;SDS011;29032;56.028;92.904;2023-06-22T12:01:23;3.13;;;2.83;;
42886;SDS011;29032;56.028;92.904;2023-06-22T12:06:27;2.83;;;2.55;;
42886;SDS011;29032;56.028;92.904;2023-06-22T12:11:29;2.80;;;2.42;;
42886;SDS011;29032;56.028;92.904;2023-06-22T12:16:31;6.25;;;2.85;;
42886;SDS011;29032;56.028;92.904;2023-06-22T12:26:55;2.95;;;2.42;;
42886;SDS011;29032;56.028;92.904;2023-06-22T12:31:57;6.30;;;2.80;;
42886;SDS011;29032;56.028;92.904;2023-06-22T12:42:21;3.42;;;2.50;;
42886;SDS011;29032;56.028;92.904;2023-06-22T12:47:23;6.55;;;3.38;;
42886;SDS011;29032;56.028;92.904;2023-06-22T12:52:27;6.28;;;2.83;;
42886;SDS011;29032;56.028;92.904;2023-06-22T12:57:47;3.95;;;2.80;;
42886;SDS011;29032;56.028;92.904;2023-06-22T13:02:49;8.05;;;3.40;;
42886;SDS011;29032;56.028;92.904;2023-06-22T13:07:53;4.43;;;2.95;;
42886;SDS011;29032;56.028;92.904;2023-06-22T13:12:55;3.40;;;3.10;;
42886;SDS011;29032;56.028;92.904;2023-06-22T13:17:57;4.40;;;3.15;;
42886;SDS011;29032;56.028;92.904;2023-06-22T13:23:19;4.88;;;2.92;;
42886;SDS011;29032;56.028;92.904;2023-06-22T13:28:22;4.25;;;3.05;;
42886;SDS011;29032;56.028;92.904;2023-06-22T13:33:42;3.00;;;2.67;;
42886;SDS011;29032;56.028;92.904;2023-06-22T13:38:45;4.65;;;3.30;;
42886;SDS011;29032;56.028;92.904;2023-06-22T13:43:48;3.90;;;2.80;;
42886;SDS011;29032;56.028;92.904;2023-06-22T13:48:51;3.30;;;3.00;;
42886;SDS011;29032;56.028;92.904;2023-06-22T13:53:54;3.95;;;3.40;;
42886;SDS011;29032;56.028;92.904;2023-06-22T13:58:56;4.60;;;3.60;;
42886;SDS011;29032;56.028;92.904;2023-06-22T14:03:58;3.92;;;3.13;;
42886;SDS011;29032;56.028;92.904;2023-06-22T14:09:02;3.70;;;3.30;;
42886;SDS011;29032;56.028;92.904;2023-06-22T14:14:04;4.25;;;3.25;;
42886;SDS011;29032;56.028;92.904;2023-06-22T14:19:06;3.88;;;3.35;;
42886;SDS011;29032;56.028;92.904;2023-06-22T14:24:10;4.55;;;3.00;;
42886;SDS011;29032;56.028;92.904;2023-06-22T14:29:12;5.03;;;3.38;;
42886;SDS011;29032;56.028;92.904;2023-06-22T14:34:14;5.78;;;3.45;;
42886;SDS011;29032;56.028;92.904;2023-06-22T14:39:18;4.03;;;3.45;;
42886;SDS011;29032;56.028;92.904;2023-06-22T14:44:20;4.43;;;3.25;;
42886;SDS011;29032;56.028;92.904;2023-06-22T14:49:22;5.53;;;4.00;;
42886;SDS011;29032;56.028;92.904;2023-06-22T14:54:26;4.30;;;3.35;;
42886;SDS011;29032;56.028;92.904;2023-06-22T14:59:28;5.13;;;3.63;;
42886;SDS011;29032;56.028;92.904;2023-06-22T15:04:30;5.32;;;4.35;;
42886;SDS011;29032;56.028;92.904;2023-06-22T15:09:52;5.32;;;3.90;;
42886;SDS011;29032;56.028;92.904;2023-06-22T15:15:13;5.85;;;3.90;;
42886;SDS011;29032;56.028;92.904;2023-06-22T15:20:15;7.10;;;4.15;;
42886;SDS011;29032;56.028;92.904;2023-06-22T15:25:18;6.25;;;4.72;;
42886;SDS011;29032;56.028;92.904;2023-06-22T15:30:21;5.78;;;4.13;;
42886;SDS011;29032;56.028;92.904;2023-06-22T15:35:23;4.82;;;3.88;;
42886;SDS011;29032;56.028;92.904;2023-06-22T15:40:26;5.30;;;4.32;;
42886;SDS011;29032;56.028;92.904;2023-06-22T15:45:29;6.43;;;4.30;;
42886;SDS011;29032;56.028;92.904;2023-06-22T15:50:32;7.65;;;5.10;;
42886;SDS011;29032;56.028;92.904;2023-06-22T15:55:55;10.50;;;5.40;;
42886;SDS011;29032;56.028;92.904;2023-06-22T16:00:57;7.25;;;5.38;;
42886;SDS011;29032;56.028;92.904;2023-06-22T16:05:59;8.07;;;5.35;;
42886;SDS011;29032;56.028;92.904;2023-06-22T16:11:39;7.30;;;5.40;;
42886;SDS011;29032;56.028;92.904;2023-06-22T16:22:20;5.78;;;4.32;;
42886;SDS011;29032;56.028;92.904;2023-06-22T16:27:24;7.78;;;5.15;;
42886;SDS011;29032;56.028;92.904;2023-06-22T16:32:26;6.25;;;4.82;;
42886;SDS011;29032;56.028;92.904;2023-06-22T16:37:28;6.10;;;4.88;;
42886;SDS011;29032;56.028;92.904;2023-06-22T16:42:32;8.15;;;4.60;;
42886;SDS011;29032;56.028;92.904;2023-06-22T16:47:34;6.25;;;4.65;;
42886;SDS011;29032;56.028;92.904;2023-06-22T16:52:36;8.75;;;5.53;;
42886;SDS011;29032;56.028;92.904;2023-06-22T16:57:39;6.45;;;4.88;;
42886;SDS011;29032;56.028;92.904;2023-06-22T17:02:43;7.03;;;5.32;;
42886;SDS011;29032;56.028;92.904;2023-06-22T17:07:47;7.40;;;5.50;;
42886;SDS011;29032;56.028;92.904;2023-06-22T17:12:55;8.63;;;5.78;;
42886;SDS011;29032;56.028;92.904;2023-06-22T17:18:07;9.13;;;5.95;;
42886;SDS011;29032;56.028;92.904;2023-06-22T17:23:27;7.45;;;5.65;;
42886;SDS011;29032;56.028;92.904;2023-06-22T17:33:58;6.88;;;4.93;;
42886;SDS011;29032;56.028;92.904;2023-06-22T17:39:00;9.57;;;5.43;;
42886;SDS011;29032;56.028;92.904;2023-06-22T17:44:03;6.55;;;5.20;;
42886;SDS011;29032;56.028;92.904;2023-06-22T17:49:10;7.28;;;4.85;;
42886;SDS011;29032;56.028;92.904;2023-06-22T17:54:13;7.60;;;5.13;;
42886;SDS011;29032;56.028;92.904;2023-06-22T17:59:15;7.60;;;5.40;;
42886;SDS011;29032;56.028;92.904;2023-06-22T18:04:19;5.10;;;4.60;;
42886;SDS011;29032;56.028;92.904;2023-06-22T18:09:21;5.47;;;4.88;;
42886;SDS011;29032;56.028;92.904;2023-06-22T18:14:24;6.18;;;4.60;;
42886;SDS011;29032;56.028;92.904;2023-06-22T18:19:28;4.90;;;4.28;;
42886;SDS011;29032;56.028;92.904;2023-06-22T18:24:49;6.20;;;5.00;;
42886;SDS011;29032;56.028;92.904;2023-06-22T18:29:52;5.32;;;4.82;;
42886;SDS011;29032;56.028;92.904;2023-06-22T18:34:58;7.95;;;5.05;;
42886;SDS011;29032;56.028;92.904;2023-06-22T18:40:00;6.68;;;5.30;;
42886;SDS011;29032;56.028;92.904;2023-06-22T18:45:03;6.33;;;5.30;;
42886;SDS011;29032;56.028;92.904;2023-06-22T18:50:37;7.13;;;5.68;;
42886;SDS011;29032;56.028;92.904;2023-06-22T18:55:43;7.28;;;5.68;;
42886;SDS011;29032;56.028;92.904;2023-06-22T19:00:45;6.83;;;5.50;;
42886;SDS011;29032;56.028;92.904;2023-06-22T19:05:53;8.43;;;5.30;;
42886;SDS011;29032;56.028;92.904;2023-06-22T19:11:10;7.95;;;5.40;;
42886;SDS011;29032;56.028;92.904;2023-06-22T19:21:21;7.97;;;5.22;;
42886;SDS011;29032;56.028;92.904;2023-06-22T19:26:24;6.10;;;4.60;;
42886;SDS011;29032;56.028;92.904;2023-06-22T19:31:26;5.18;;;4.40;;
42886;SDS011;29032;56.028;92.904;2023-06-22T19:36:31;5.25;;;4.10;;
42886;SDS011;29032;56.028;92.904;2023-06-22T19:41:34;4.53;;;4.13;;
42886;SDS011;29032;56.028;92.904;2023-06-22T19:46:36;5.35;;;4.45;;
42886;SDS011;29032;56.028;92.904;2023-06-22T19:51:40;6.25;;;4.50;;
42886;SDS011;29032;56.028;92.904;2023-06-22T19:56:42;6.30;;;4.60;;
42886;SDS011;29032;56.028;92.904;2023-06-22T20:01:46;6.25;;;4.60;;
42886;SDS011;29032;56.028;92.904;2023-06-22T20:07:02;5.93;;;4.93;;
42886;SDS011;29032;56.028;92.904;2023-06-22T20:12:08;6.72;;;4.60;;
42886;SDS011;29032;56.028;92.904;2023-06-22T20:17:28;7.27;;;4.97;;
42886;SDS011;29032;56.028;92.904;2023-06-22T20:22:50;7.73;;;5.60;;
42886;SDS011;29032;56.028;92.904;2023-06-22T20:27:52;6.03;;;5.10;;
42886;SDS011;29032;56.028;92.904;2023-06-22T20:33:00;6.17;;;4.60;;
42886;SDS011;29032;56.028;92.904;2023-06-22T20:38:05;6.97;;;5.17;;
42886;SDS011;29032;56.028;92.904;2023-06-22T20:43:08;13.35;;;6.45;;
42886;SDS011;29032;56.028;92.904;2023-06-22T20:48:15;5.90;;;4.57;;
42886;SDS011;29032;56.028;92.904;2023-06-22T20:53:19;5.83;;;5.13;;
42886;SDS011;29032;56.028;92.904;2023-06-22T20:58:21;5.53;;;4.83;;
42886;SDS011;29032;56.028;92.904;2023-06-22T21:08:44;10.57;;;6.67;;
42886;SDS011;29032;56.028;92.904;2023-06-22T21:14:05;7.70;;;6.63;;
42886;SDS011;29032;56.028;92.904;2023-06-22T21:19:07;7.87;;;5.67;;
42886;SDS011;29032;56.028;92.904;2023-06-22T21:29:30;8.47;;;6.43;;
42886;SDS011;29032;56.028;92.904;2023-06-22T21:34:32;7.13;;;5.37;;
42886;SDS011;29032;56.028;92.904;2023-06-22T21:39:37;6.33;;;5.47;;
42886;SDS011;29032;56.028;92.904;2023-06-22T21:44:39;5.77;;;4.93;;
42886;SDS011;29032;56.028;92.904;2023-06-22T21:49:41;6.43;;;5.30;;
42886;SDS011;29032;56.028;92.904;2023-06-22T21:54:45;6.50;;;5.10;;
42886;SDS011;29032;56.028;92.904;2023-06-22T21:59:47;5.90;;;5.30;;
42886;SDS011;29032;56.028;92.904;2023-06-22T22:10:11;5.20;;;4.70;;
42886;SDS011;29032;56.028;92.904;2023-06-22T22:15:13;9.40;;;5.33;;
42886;SDS011;29032;56.028;92.904;2023-06-22T22:20:15;6.60;;;5.07;;
42886;SDS011;29032;56.028;92.904;2023-06-22T22:25:36;6.93;;;5.20;;
42886;SDS011;29032;56.028;92.904;2023-06-22T22:30:57;8.23;;;6.03;;
42886;SDS011;29032;56.028;92.904;2023-06-22T22:36:17;7.43;;;5.43;;
42886;SDS011;29032;56.028;92.904;2023-06-22T22:41:21;8.57;;;6.20;;
42886;SDS011;29032;56.028;92.904;2023-06-22T22:46:41;11.17;;;6.83;;
42886;SDS011;29032;56.028;92.904;2023-06-22T22:52:01;10.20;;;6.33;;
42886;SDS011;29032;56.028;92.904;2023-06-22T22:57:23;7.73;;;5.97;;
42886;SDS011;29032;56.028;92.904;2023-06-22T23:02:25;9.03;;;5.83;;
42886;SDS011;29032;56.028;92.904;2023-06-22T23:07:27;6.93;;;5.20;;
42886;SDS011;29032;56.028;92.904;2023-06-22T23:12:31;8.60;;;5.57;;
42886;SDS011;29032;56.028;92.904;2023-06-22T23:17:33;6.27;;;5.27;;
42886;SDS011;29032;56.028;92.904;2023-06-22T23:22:36;6.47;;;5.47;;
42886;SDS011;29032;56.028;92.904;2023-06-22T23:27:39;6.50;;;5.43;;
42886;SDS011;29032;56.028;92.904;2023-06-22T23:32:41;5.80;;;5.00;;
42886;SDS011;29032;56.028;92.904;2023-06-22T23:37:43;8.80;;;4.77;;
42886;SDS011;29032;56.028;92.904;2023-06-22T23:48:07;5.63;;;4.80;;
42886;SDS011;29032;56.028;92.904;2023-06-22T23:53:28;7.63;;;4.53;;
42886;SDS011;29032;56.028;92.904;2023-06-22T23:58:50;7.97;;;5.10;;
